createdAt,value
2018-05-15T00:00:44.920Z,16.90
2018-05-15T00:03:12.078Z,16.90
2018-05-15T00:05:38.478Z,16.90
2018-05-15T00:08:05.640Z,16.90
2018-05-15T00:10:32.805Z,16.90
2018-05-15T00:12:59.255Z,16.90
2018-05-15T00:15:25.661Z,16.90
2018-05-15T00:17:52.858Z,17.00
2018-05-15T00:20:19.271Z,17.00
2018-05-15T00:22:46.392Z,17.00
2018-05-15T00:25:13.547Z,17.00
2018-05-15T00:27:40.032Z,17.00
2018-05-15T00:30:06.411Z,17.00
2018-05-15T00:32:33.527Z,16.90
2018-05-15T00:34:59.945Z,16.90
2018-05-15T00:37:26.352Z,16.80
2018-05-15T00:39:52.742Z,16.80
2018-05-15T00:42:19.140Z,16.70
2018-05-15T00:44:45.546Z,16.70
2018-05-15T00:47:11.981Z,16.60
2018-05-15T00:49:38.409Z,16.60
2018-05-15T00:52:04.814Z,16.60
2018-05-15T00:54:32.714Z,16.50
2018-05-15T00:56:59.145Z,16.60
2018-05-15T00:59:25.558Z,16.60
2018-05-15T01:01:52.748Z,16.50
2018-05-15T01:04:19.884Z,16.40
2018-05-15T01:06:46.286Z,16.40
2018-05-15T01:09:12.672Z,16.40
2018-05-15T01:11:39.099Z,16.40
2018-05-15T01:14:05.534Z,16.40
2018-05-15T01:16:31.945Z,16.30
2018-05-15T01:18:58.445Z,16.30
2018-05-15T01:21:24.863Z,16.30
2018-05-15T01:23:52.127Z,16.30
2018-05-15T01:26:18.553Z,16.30
2018-05-15T01:28:45.005Z,16.40
2018-05-15T01:31:11.433Z,16.40
2018-05-15T01:33:38.593Z,16.40
2018-05-15T01:36:05.024Z,16.40
2018-05-15T01:38:32.217Z,16.30
2018-05-15T01:40:58.623Z,16.30
2018-05-15T01:43:25.041Z,16.30
2018-05-15T01:45:51.412Z,16.30
2018-05-15T01:48:18.561Z,16.20
2018-05-15T01:50:44.957Z,16.20
2018-05-15T01:53:12.100Z,16.20
2018-05-15T01:55:39.279Z,16.10
2018-05-15T01:58:05.680Z,16.10
2018-05-15T02:00:32.101Z,16.10
2018-05-15T02:02:58.481Z,16.10
2018-05-15T02:05:24.871Z,16.00
2018-05-15T02:07:51.264Z,16.00
2018-05-15T02:10:17.705Z,16.00
2018-05-15T02:12:44.121Z,15.90
2018-05-15T02:15:10.507Z,15.90
2018-05-15T02:17:36.960Z,15.90
2018-05-15T02:20:04.118Z,15.80
2018-05-15T02:22:31.248Z,15.90
2018-05-15T02:24:58.433Z,15.80
2018-05-15T02:27:25.555Z,15.80
2018-05-15T02:29:52.753Z,15.80
2018-05-15T02:32:19.176Z,15.80
2018-05-15T02:34:45.564Z,15.80
2018-05-15T02:37:11.974Z,15.80
2018-05-15T02:39:38.424Z,15.80
2018-05-15T02:42:05.040Z,15.80
2018-05-15T02:44:31.485Z,15.80
2018-05-15T02:46:57.943Z,15.70
2018-05-15T02:49:24.328Z,15.70
2018-05-15T02:51:50.716Z,15.70
2018-05-15T02:54:17.168Z,15.60
2018-05-15T02:56:43.560Z,15.70
2018-05-15T02:59:09.960Z,15.70
2018-05-15T03:01:36.475Z,15.70
2018-05-15T03:04:02.931Z,15.70
2018-05-15T03:06:29.331Z,15.60
2018-05-15T03:08:55.827Z,15.60
2018-05-15T03:11:22.225Z,15.50
2018-05-15T03:13:48.612Z,15.50
2018-05-15T03:16:15.033Z,15.50
2018-05-15T03:18:42.160Z,15.50
2018-05-15T03:21:08.548Z,15.40
2018-05-15T03:23:34.983Z,15.40
2018-05-15T03:26:01.416Z,15.40
2018-05-15T03:28:27.811Z,15.30
2018-05-15T03:30:56.164Z,15.30
2018-05-15T03:33:22.583Z,15.30
2018-05-15T03:35:49.041Z,15.30
2018-05-15T03:38:15.461Z,15.30
2018-05-15T03:40:42.763Z,15.30
2018-05-15T03:43:09.905Z,15.30
2018-05-15T03:45:36.355Z,15.30
2018-05-15T03:48:02.780Z,15.30
2018-05-15T03:50:29.902Z,15.30
2018-05-15T03:52:57.073Z,15.30
2018-05-15T03:55:23.482Z,15.30
2018-05-15T03:57:49.919Z,15.30
2018-05-15T04:00:29.583Z,15.20
2018-05-15T04:03:08.291Z,15.20
2018-05-15T04:05:47.112Z,15.30
2018-05-15T04:08:13.552Z,15.30
2018-05-15T04:10:40.840Z,15.30
2018-05-15T04:13:08.105Z,15.30
2018-05-15T04:15:34.502Z,15.30
2018-05-15T04:18:00.897Z,15.40
2018-05-15T04:20:28.364Z,15.40
2018-05-15T04:22:54.942Z,15.40
2018-05-15T04:25:21.356Z,15.50
2018-05-15T04:27:47.776Z,15.50
2018-05-15T04:30:14.253Z,15.50
2018-05-15T04:32:40.668Z,15.60
2018-05-15T04:35:07.171Z,15.60
2018-05-15T04:37:33.527Z,15.70
2018-05-15T04:39:59.940Z,15.70
2018-05-15T04:42:27.205Z,15.70
2018-05-15T04:44:53.608Z,15.70
2018-05-15T04:47:20.061Z,15.80
2018-05-15T04:49:46.460Z,15.80
2018-05-15T04:52:12.888Z,15.80
2018-05-15T04:54:39.326Z,15.90
2018-05-15T04:57:05.724Z,16.00
2018-05-15T04:59:32.148Z,16.10
2018-05-15T05:01:58.592Z,16.30
2018-05-15T05:04:24.991Z,16.50
2018-05-15T05:06:51.393Z,16.90
2018-05-15T05:09:17.777Z,17.40
2018-05-15T05:11:44.282Z,18.20
2018-05-15T05:14:10.638Z,19.20
2018-05-15T05:16:37.049Z,19.80
2018-05-15T05:19:03.892Z,19.70
2018-05-15T05:21:30.396Z,19.50
2018-05-15T05:23:56.780Z,19.10
2018-05-15T05:26:23.214Z,18.50
2018-05-15T05:28:50.448Z,18.00
2018-05-15T05:31:17.614Z,17.90
2018-05-15T05:33:44.089Z,17.90
2018-05-15T05:36:10.528Z,18.10
2018-05-15T05:38:36.971Z,18.30
2018-05-15T05:41:03.369Z,18.40
2018-05-15T05:43:29.777Z,18.30
2018-05-15T05:45:56.171Z,18.20
2018-05-15T05:48:22.595Z,18.10
2018-05-15T05:50:48.986Z,18.10
2018-05-15T05:53:15.396Z,18.10
2018-05-15T05:55:42.572Z,18.40
2018-05-15T05:58:08.995Z,18.40
2018-05-15T06:00:36.196Z,18.70
2018-05-15T06:03:04.144Z,18.70
2018-05-15T06:05:31.640Z,18.80
2018-05-15T06:07:58.056Z,18.70
2018-05-15T06:10:24.479Z,18.80
2018-05-15T06:12:50.888Z,19.20
2018-05-15T06:15:17.303Z,19.60
2018-05-15T06:17:43.780Z,20.10
2018-05-15T06:20:10.185Z,20.50
2018-05-15T06:22:37.299Z,20.90
2018-05-15T06:25:04.485Z,20.80
2018-05-15T06:27:31.644Z,20.80
2018-05-15T06:29:58.103Z,20.80
2018-05-15T06:32:24.898Z,20.80
2018-05-15T06:34:52.019Z,20.60
2018-05-15T06:37:19.221Z,20.50
2018-05-15T06:39:45.677Z,20.50
2018-05-15T06:42:12.064Z,20.60
2018-05-15T06:44:39.295Z,21.10
2018-05-15T06:47:05.718Z,21.10
2018-05-15T06:49:32.112Z,21.30
2018-05-15T06:51:58.518Z,21.50
2018-05-15T06:54:25.762Z,22.00
2018-05-15T06:56:52.908Z,22.40
2018-05-15T06:59:20.032Z,22.80
2018-05-15T07:01:47.370Z,23.10
2018-05-15T07:04:13.754Z,23.10
2018-05-15T07:06:40.180Z,23.30
2018-05-15T07:09:07.441Z,23.70
2018-05-15T07:11:33.837Z,23.60
2018-05-15T07:14:00.294Z,23.70
2018-05-15T07:16:26.691Z,23.70
2018-05-15T07:18:53.089Z,23.80
2018-05-15T07:21:19.496Z,24.00
2018-05-15T07:23:47.511Z,24.70
2018-05-15T07:26:13.952Z,24.70
2018-05-15T07:28:40.423Z,25.20
2018-05-15T07:31:07.598Z,25.90
2018-05-15T07:33:34.076Z,25.90
2018-05-15T07:36:00.507Z,26.00
2018-05-15T07:38:26.987Z,26.40
2018-05-15T07:40:54.947Z,28.20
2018-05-15T07:43:22.126Z,29.50
2018-05-15T07:45:48.677Z,29.40
2018-05-15T07:48:15.144Z,30.50
2018-05-15T07:50:41.571Z,31.70
2018-05-15T07:53:08.101Z,32.80
2018-05-15T07:55:34.521Z,32.80
2018-05-15T07:58:00.954Z,32.50
2018-05-15T08:00:27.405Z,32.60
2018-05-15T08:02:53.810Z,32.70
2018-05-15T08:05:20.256Z,32.50
2018-05-15T08:07:46.756Z,32.30
2018-05-15T08:10:13.265Z,31.60
2018-05-15T08:12:39.723Z,31.30
2018-05-15T08:15:06.191Z,31.20
2018-05-15T08:17:32.634Z,31.10
2018-05-15T08:19:59.087Z,30.90
2018-05-15T08:22:25.618Z,30.70
2018-05-15T08:24:52.002Z,30.50
2018-05-15T08:27:18.468Z,30.00
2018-05-15T08:29:44.920Z,29.20
2018-05-15T08:32:11.345Z,28.60
2018-05-15T08:34:37.808Z,29.50
2018-05-15T08:37:05.020Z,32.80
2018-05-15T08:39:31.454Z,32.80
2018-05-15T08:41:57.915Z,34.40
2018-05-15T08:44:25.197Z,35.50
2018-05-15T08:46:51.643Z,35.50
2018-05-15T08:49:18.079Z,35.10
2018-05-15T08:51:44.597Z,34.50
2018-05-15T08:54:11.736Z,32.80
2018-05-15T08:56:38.886Z,31.50
2018-05-15T08:59:06.818Z,30.10
2018-05-15T09:01:33.254Z,30.20
2018-05-15T09:03:59.708Z,29.10
2018-05-15T09:06:26.238Z,28.20
2018-05-15T09:08:52.748Z,27.20
2018-05-15T09:11:19.252Z,26.60
2018-05-15T09:13:45.768Z,26.00
2018-05-15T09:16:12.221Z,25.80
2018-05-15T09:18:38.696Z,25.50
2018-05-15T09:21:05.167Z,25.30
2018-05-15T09:23:31.560Z,25.10
2018-05-15T09:25:57.978Z,24.80
2018-05-15T09:28:24.416Z,24.70
2018-05-15T09:30:50.859Z,24.70
2018-05-15T09:33:17.340Z,24.90
2018-05-15T09:35:43.800Z,24.80
2018-05-15T09:38:10.241Z,24.50
2018-05-15T09:40:37.473Z,24.50
2018-05-15T09:43:04.037Z,24.40
2018-05-15T09:45:30.463Z,24.50
2018-05-15T09:47:56.905Z,24.50
2018-05-15T09:50:23.407Z,24.40
2018-05-15T09:52:49.843Z,24.40
2018-05-15T09:55:16.292Z,24.40
2018-05-15T09:57:42.780Z,24.40
2018-05-15T10:00:09.240Z,24.50
2018-05-15T10:02:35.690Z,24.60
2018-05-15T10:05:02.208Z,24.60
2018-05-15T10:07:28.654Z,24.60
2018-05-15T10:09:55.170Z,24.60
2018-05-15T10:12:21.713Z,24.50
2018-05-15T10:14:48.159Z,24.40
2018-05-15T10:17:15.353Z,24.00
2018-05-15T10:19:41.825Z,24.00
2018-05-15T10:22:09.021Z,23.60
2018-05-15T10:24:35.466Z,23.60
2018-05-15T10:27:02.043Z,23.60
2018-05-15T10:29:28.477Z,23.50
2018-05-15T10:31:54.897Z,23.60
2018-05-15T10:34:22.072Z,23.60
2018-05-15T10:36:48.556Z,23.60
2018-05-15T10:39:14.980Z,23.50
2018-05-15T10:41:41.468Z,23.50
2018-05-15T10:44:07.927Z,23.50
2018-05-15T10:46:34.415Z,23.50
2018-05-15T10:49:01.661Z,23.70
2018-05-15T10:51:28.982Z,23.90
2018-05-15T10:53:55.409Z,23.90
2018-05-15T10:56:22.009Z,24.00
2018-05-15T10:58:48.521Z,23.90
2018-05-15T11:01:15.119Z,23.90
2018-05-15T11:03:48.544Z,23.80
2018-05-15T11:06:15.022Z,23.80
2018-05-15T11:08:41.455Z,23.70
2018-05-15T11:11:07.939Z,23.80
2018-05-15T11:13:34.415Z,23.90
2018-05-15T11:16:00.883Z,23.90
2018-05-15T11:18:47.127Z,24.00
2018-05-15T11:21:26.096Z,24.10
2018-05-15T11:24:04.664Z,24.10
2018-05-15T11:26:31.163Z,24.10
2018-05-15T11:28:57.621Z,24.10
2018-05-15T11:31:24.110Z,24.00
2018-05-15T11:33:51.138Z,23.90
2018-05-15T11:36:18.892Z,24.10
2018-05-15T11:38:46.759Z,24.10
2018-05-15T11:41:13.808Z,24.10
2018-05-15T11:43:40.856Z,24.00
2018-05-15T11:46:07.907Z,24.00
2018-05-15T11:48:35.618Z,23.90
2018-05-15T11:51:03.319Z,23.90
2018-05-15T11:53:29.968Z,23.90
2018-05-15T11:55:57.881Z,23.70
2018-05-15T11:58:24.994Z,23.60
2018-05-15T12:00:52.037Z,23.60
2018-05-15T12:03:19.079Z,23.50
2018-05-15T12:05:46.741Z,23.60
2018-05-15T12:08:14.726Z,23.40
2018-05-15T12:10:41.834Z,23.60
2018-05-15T12:13:08.806Z,23.80
2018-05-15T12:15:36.573Z,24.00
2018-05-15T12:18:03.657Z,24.10
2018-05-15T12:20:31.385Z,24.20
2018-05-15T12:22:58.430Z,24.20
2018-05-15T12:25:25.579Z,24.30
2018-05-15T12:27:52.731Z,24.30
2018-05-15T12:30:20.802Z,24.30
2018-05-15T12:32:48.675Z,24.20
2018-05-15T12:35:16.331Z,24.10
2018-05-15T12:37:43.383Z,24.10
2018-05-15T12:40:11.043Z,24.20
2018-05-15T12:42:37.985Z,24.20
2018-05-15T12:45:04.931Z,24.30
2018-05-15T12:47:32.141Z,24.20
2018-05-15T12:49:59.231Z,24.10
2018-05-15T12:52:26.336Z,24.20
2018-05-15T12:54:53.428Z,24.20
2018-05-15T12:57:20.377Z,24.30
2018-05-15T12:59:47.320Z,24.50
2018-05-15T13:02:14.264Z,24.60
2018-05-15T13:04:41.926Z,24.60
2018-05-15T13:07:09.587Z,24.60
2018-05-15T13:09:36.534Z,24.60
2018-05-15T13:12:04.209Z,24.70
2018-05-15T13:14:31.242Z,24.70
2018-05-15T13:16:58.906Z,24.80
2018-05-15T13:19:26.566Z,24.70
2018-05-15T13:21:53.512Z,24.70
2018-05-15T13:24:20.583Z,24.70
2018-05-15T13:26:47.709Z,24.70
2018-05-15T13:29:14.756Z,24.70
2018-05-15T13:31:42.419Z,24.40
2018-05-15T13:34:10.081Z,24.40
2018-05-15T13:36:37.599Z,24.40
2018-05-15T13:39:05.303Z,24.50
2018-05-15T13:41:32.965Z,24.60
2018-05-15T13:43:59.897Z,24.60
2018-05-15T13:46:26.753Z,24.60
2018-05-15T13:48:53.601Z,24.40
2018-05-15T13:51:20.534Z,24.30
2018-05-15T13:53:47.486Z,24.20
2018-05-15T13:56:14.431Z,24.10
2018-05-15T13:58:41.494Z,24.00
2018-05-15T14:01:08.424Z,24.00
2018-05-15T14:03:35.370Z,23.90
2018-05-15T14:06:02.316Z,23.80
2018-05-15T14:08:29.263Z,23.80
2018-05-15T14:10:56.212Z,23.80
2018-05-15T14:13:23.152Z,23.80
2018-05-15T14:15:50.100Z,23.80
2018-05-15T14:18:17.145Z,23.90
2018-05-15T14:20:44.192Z,23.90
2018-05-15T14:23:11.968Z,23.90
2018-05-15T14:25:39.938Z,23.90
2018-05-15T14:28:07.897Z,23.90
2018-05-15T14:30:35.668Z,23.90
2018-05-15T14:33:02.710Z,23.90
2018-05-15T14:35:29.863Z,23.80
2018-05-15T14:37:57.723Z,23.80
2018-05-15T14:40:24.672Z,23.60
2018-05-15T14:43:19.165Z,23.50
2018-05-15T14:45:45.583Z,23.50
2018-05-15T14:48:11.948Z,23.40
2018-05-15T14:50:50.720Z,23.40
2018-05-15T14:53:17.869Z,23.40
2018-05-15T14:55:44.326Z,23.40
2018-05-15T14:58:10.788Z,23.30
2018-05-15T15:00:37.210Z,23.30
2018-05-15T15:03:03.630Z,23.40
2018-05-15T15:05:30.099Z,23.30
2018-05-15T15:07:56.470Z,23.20
2018-05-15T15:10:22.841Z,23.20
2018-05-15T15:12:49.239Z,23.20
2018-05-15T15:15:15.594Z,23.30
2018-05-15T15:17:41.932Z,23.30
2018-05-15T15:20:09.076Z,23.30
2018-05-15T15:22:36.174Z,23.30
2018-05-15T15:25:02.558Z,23.30
2018-05-15T15:27:29.710Z,23.20
2018-05-15T15:29:56.096Z,23.30
2018-05-15T15:32:22.578Z,23.30
2018-05-15T15:34:49.688Z,23.50
2018-05-15T15:37:16.047Z,23.40
2018-05-15T15:39:42.417Z,23.50
2018-05-15T15:42:08.790Z,23.50
2018-05-15T15:44:35.139Z,23.50
2018-05-15T15:47:02.312Z,23.40
2018-05-15T15:49:28.690Z,23.40
2018-05-15T15:51:55.068Z,23.40
2018-05-15T15:54:22.204Z,23.40
2018-05-15T15:56:48.632Z,23.40
2018-05-15T15:59:15.049Z,23.40
2018-05-15T16:01:41.495Z,23.50
2018-05-15T16:04:08.054Z,23.50
2018-05-15T16:06:34.301Z,23.50
2018-05-15T16:09:00.633Z,23.50
2018-05-15T16:11:27.041Z,23.50
2018-05-15T16:13:54.157Z,23.50
2018-05-15T16:16:20.568Z,23.50
2018-05-15T16:18:46.846Z,23.50
2018-05-15T16:21:13.938Z,23.40
2018-05-15T16:23:40.356Z,23.40
2018-05-15T16:26:06.777Z,23.30
2018-05-15T16:28:33.914Z,23.20
2018-05-15T16:31:00.238Z,23.10
2018-05-15T16:33:27.378Z,23.10
2018-05-15T16:35:53.702Z,23.10
2018-05-15T16:38:20.609Z,22.90
2018-05-15T16:40:47.000Z,22.60
2018-05-15T16:43:13.332Z,22.80
2018-05-15T16:45:40.418Z,22.80
2018-05-15T16:48:06.838Z,22.80
2018-05-15T16:50:33.210Z,22.80
2018-05-15T16:52:59.546Z,22.80
2018-05-15T16:55:25.956Z,22.70
2018-05-15T16:57:52.297Z,22.70
2018-05-15T17:00:18.645Z,22.60
2018-05-15T17:02:45.139Z,22.60
2018-05-15T17:05:11.539Z,22.50
2018-05-15T17:07:38.652Z,22.40
2018-05-15T17:10:05.029Z,22.40
2018-05-15T17:12:32.127Z,22.40
2018-05-15T17:14:58.489Z,22.40
2018-05-15T17:17:24.932Z,22.40
2018-05-15T17:19:51.273Z,22.40
2018-05-15T17:22:18.358Z,22.30
2018-05-15T17:24:44.734Z,22.30
2018-05-15T17:27:11.129Z,22.30
2018-05-15T17:29:37.469Z,22.20
2018-05-15T17:32:04.184Z,22.20
2018-05-15T17:34:30.558Z,22.20
2018-05-15T17:36:56.908Z,22.10
2018-05-15T17:39:24.092Z,22.10
2018-05-15T17:41:50.772Z,22.10
2018-05-15T17:44:17.232Z,22.00
2018-05-15T17:46:44.341Z,21.80
2018-05-15T17:49:10.742Z,21.80
2018-05-15T17:51:37.086Z,21.70
2018-05-15T17:54:03.461Z,21.70
2018-05-15T17:56:29.893Z,21.60
2018-05-15T17:58:56.254Z,21.60
2018-05-15T18:01:24.121Z,21.20
2018-05-15T18:03:50.502Z,21.20
2018-05-15T18:06:16.893Z,20.90
2018-05-15T18:08:43.277Z,20.50
2018-05-15T18:11:09.690Z,20.00
2018-05-15T18:13:36.090Z,19.50
2018-05-15T18:16:02.546Z,19.30
2018-05-15T18:18:28.937Z,19.00
2018-05-15T18:20:55.299Z,18.80
2018-05-15T18:23:21.729Z,18.80
2018-05-15T18:25:48.099Z,18.60
2018-05-15T18:28:14.442Z,18.60
2018-05-15T18:30:40.849Z,18.60
2018-05-15T18:33:07.204Z,18.40
2018-05-15T18:35:33.575Z,18.30
2018-05-15T18:37:59.948Z,18.00
2018-05-15T18:40:26.657Z,17.70
2018-05-15T18:42:53.017Z,17.40
2018-05-15T18:45:19.439Z,17.20
2018-05-15T18:47:45.730Z,16.90
2018-05-15T18:50:12.814Z,16.20
2018-05-15T18:52:39.244Z,16.20
2018-05-15T18:55:05.608Z,15.90
2018-05-15T18:57:31.973Z,15.70
2018-05-15T18:59:59.121Z,15.40
2018-05-15T19:02:26.224Z,15.30
2018-05-15T19:04:52.611Z,15.20
2018-05-15T19:07:19.267Z,15.30
2018-05-15T19:09:45.640Z,15.30
2018-05-15T19:12:11.991Z,15.20
2018-05-15T19:14:38.351Z,15.10
2018-05-15T19:17:05.440Z,15.00
2018-05-15T19:19:31.864Z,14.90
2018-05-15T19:21:58.950Z,14.90
2018-05-15T19:24:25.330Z,14.80
2018-05-15T19:26:51.768Z,14.80
2018-05-15T19:29:18.167Z,14.90
2018-05-15T19:31:45.294Z,15.10
2018-05-15T19:34:17.837Z,15.00
2018-05-15T19:36:51.081Z,15.10
2018-05-15T19:39:17.639Z,15.00
2018-05-15T19:41:44.093Z,14.90
2018-05-15T19:44:10.465Z,14.90
2018-05-15T19:46:39.046Z,14.70
2018-05-15T19:49:06.179Z,14.70
2018-05-15T19:51:32.539Z,14.70
2018-05-15T19:54:00.405Z,14.60
2018-05-15T19:56:26.783Z,14.60
2018-05-15T19:58:53.163Z,14.60
2018-05-15T20:01:20.364Z,14.60
2018-05-15T20:03:46.736Z,14.60
2018-05-15T20:06:13.084Z,14.60
2018-05-15T20:08:39.476Z,14.50
2018-05-15T20:11:05.871Z,14.50
2018-05-15T20:13:32.249Z,14.50
2018-05-15T20:15:58.612Z,14.50
2018-05-15T20:18:24.946Z,14.50
2018-05-15T20:20:51.276Z,14.50
2018-05-15T20:23:17.651Z,14.50
2018-05-15T20:25:44.029Z,14.60
2018-05-15T20:28:10.418Z,14.50
2018-05-15T20:30:36.794Z,14.50
2018-05-15T20:33:03.138Z,14.50
2018-05-15T20:35:29.502Z,14.60
2018-05-15T20:37:56.625Z,14.50
2018-05-15T20:40:23.729Z,14.50
2018-05-15T20:42:50.209Z,14.50
2018-05-15T20:45:17.339Z,14.70
2018-05-15T20:47:43.683Z,14.70
2018-05-15T20:50:10.054Z,14.70
2018-05-15T20:52:36.461Z,14.70
2018-05-15T20:55:02.857Z,14.70
2018-05-15T20:57:29.980Z,14.70
2018-05-15T20:59:56.361Z,14.70
2018-05-15T21:02:23.472Z,14.60
2018-05-15T21:04:49.833Z,14.60
2018-05-15T21:07:16.290Z,14.50
2018-05-15T21:09:43.394Z,14.50
2018-05-15T21:12:09.750Z,14.50
2018-05-15T21:14:38.982Z,14.50
2018-05-15T21:17:05.326Z,14.50
2018-05-15T21:19:31.654Z,14.40
2018-05-15T21:21:58.109Z,14.40
2018-05-15T21:24:24.425Z,14.40
2018-05-15T21:26:50.777Z,14.30
2018-05-15T21:29:17.173Z,14.20
2018-05-15T21:31:43.552Z,14.20
2018-05-15T21:34:09.944Z,14.20
2018-05-15T21:36:36.341Z,14.20
2018-05-15T21:39:02.750Z,14.20
2018-05-15T21:41:29.104Z,14.20
2018-05-15T21:43:55.514Z,14.20
2018-05-15T21:46:22.650Z,14.20
2018-05-15T21:48:49.017Z,14.10
2018-05-15T21:51:16.141Z,14.20
2018-05-15T21:53:42.507Z,14.20
2018-05-15T21:56:08.848Z,14.20
2018-05-15T21:58:35.953Z,14.20
2018-05-15T22:01:02.339Z,14.20
2018-05-15T22:03:28.786Z,14.30
2018-05-15T22:05:55.090Z,14.20
2018-05-15T22:08:22.198Z,14.10
2018-05-15T22:10:48.611Z,14.20
2018-05-15T22:13:27.763Z,14.20
2018-05-15T22:16:06.636Z,14.20
2018-05-15T22:18:45.302Z,14.30
2018-05-15T22:21:23.855Z,14.20
2018-05-15T22:23:50.769Z,14.20
2018-05-15T22:26:17.119Z,14.30
2018-05-15T22:28:44.276Z,14.40
2018-05-15T22:31:10.653Z,14.40
2018-05-15T22:33:36.993Z,14.50
2018-05-15T22:36:03.386Z,14.50
2018-05-15T22:38:30.570Z,14.50
2018-05-15T22:40:56.939Z,14.50
2018-05-15T22:43:23.273Z,14.50
2018-05-15T22:45:49.678Z,14.50
2018-05-15T22:48:15.992Z,14.50
2018-05-15T22:50:42.343Z,14.50
2018-05-15T22:53:08.709Z,14.60
2018-05-15T22:55:35.073Z,14.60
2018-05-15T22:58:01.438Z,14.60
2018-05-15T23:00:27.826Z,14.70
2018-05-15T23:02:54.901Z,14.70
2018-05-15T23:05:21.267Z,14.70
2018-05-15T23:07:47.699Z,14.70
2018-05-15T23:10:14.054Z,14.70
2018-05-15T23:12:41.177Z,14.80
2018-05-15T23:15:07.553Z,14.70
2018-05-15T23:17:34.607Z,14.80
2018-05-15T23:20:01.685Z,14.80
2018-05-15T23:22:40.505Z,14.80
2018-05-15T23:25:06.817Z,14.80
2018-05-15T23:27:33.156Z,14.80
2018-05-15T23:30:00.248Z,14.90
2018-05-15T23:32:28.055Z,14.80
2018-05-15T23:34:54.398Z,14.80
2018-05-15T23:37:20.799Z,14.90
2018-05-15T23:39:47.929Z,14.80
2018-05-15T23:42:14.279Z,14.80
2018-05-15T23:44:41.259Z,14.80
2018-05-15T23:47:07.638Z,14.80
2018-05-15T23:49:33.973Z,14.70
2018-05-15T23:52:01.093Z,14.70
2018-05-15T23:54:28.241Z,14.60
2018-05-15T23:56:54.600Z,14.60
2018-05-15T23:59:20.985Z,14.50
